Time;durP1;ratioP1;P1;durP2;ratioP2;P2;SDS_P1;SDS_P2;PMS_P1;PMS_P2;Temp;Humidity;BMP_temperature;BMP_pressure;BME280_temperature;BME280_humidity;BME280_pressure;Samples;Min_cycle;Max_cycle;Signal;HPM_P1;HPM_P2
2021/11/08 00:01:54;;;;;;;5.68;1.50;;;;;;;7.41;100.00;100481.91;5074761;28;20600;-53
2021/11/08 00:04:58;;;;;;;0.65;0.65;;;;;;;7.40;100.00;100482.34;5074823;28;20377;-53
2021/11/08 00:08:03;;;;;;;1.38;0.70;;;;;;;7.32;100.00;100476.22;5075115;28;20127;-53
2021/11/08 00:11:06;;;;;;;8.32;1.45;;;;;;;7.26;100.00;100472.44;5074737;28;20040;-53
2021/11/08 00:14:15;;;;;;;1.52;0.75;;;;;;;7.23;100.00;100467.78;5074618;28;20043;-52
2021/11/08 00:20:30;;;;;;;0.85;0.85;;;;;;;4.81;100.00;100490.66;5075305;28;20047;-52
2021/11/08 00:23:33;;;;;;;0.60;0.60;;;;;;;4.59;100.00;100507.53;5071739;28;20036;-52
2021/11/08 00:26:36;;;;;;;1.48;1.48;;;;;;;4.55;100.00;100506.81;5072616;28;20093;-53
2021/11/08 00:29:39;;;;;;;1.23;0.98;;;;;;;4.52;100.00;100498.59;5072314;28;20047;-52
2021/11/08 00:32:42;;;;;;;2.58;0.68;;;;;;;4.47;100.00;100502.63;5072745;28;20078;-53
2021/11/08 00:35:59;;;;;;;1.38;1.20;;;;;;;4.39;100.00;100492.91;5072111;28;20047;-52
2021/11/08 00:39:04;;;;;;;1.60;1.02;;;;;;;4.41;100.00;100495.25;5072703;28;20554;-52
2021/11/08 00:42:07;;;;;;;1.10;0.55;;;;;;;4.61;100.00;100501.63;5072184;28;20136;-53
2021/11/08 00:45:11;;;;;;;0.85;0.52;;;;;;;5.91;100.00;100496.34;5072524;28;20078;-52
2021/11/08 00:48:16;;;;;;;1.38;1.27;;;;;;;6.12;100.00;100495.09;5071838;28;20083;-52
2021/11/08 00:51:20;;;;;;;4.05;1.27;;;;;;;6.15;100.00;100482.41;5072127;28;20048;-52
2021/11/08 00:54:23;;;;;;;1.42;1.13;;;;;;;6.14;100.00;100498.22;5071080;28;20110;-52
2021/11/08 00:57:31;;;;;;;5.50;1.27;;;;;;;6.16;100.00;100501.34;5072093;28;20113;-52
2021/11/08 01:00:34;;;;;;;0.20;0.20;;;;;;;5.86;100.00;100491.34;5071921;28;20498;-52
2021/11/08 01:03:43;;;;;;;2.10;1.67;;;;;;;4.70;100.00;100493.56;5071933;28;20123;-52
2021/11/08 01:06:47;;;;;;;0.98;0.52;;;;;;;4.60;100.00;100497.28;5071979;28;20035;-52
2021/11/08 01:09:51;;;;;;;7.40;1.02;;;;;;;6.01;100.00;100489.81;5072080;28;20047;-53
2021/11/08 01:12:54;;;;;;;1.02;1.02;;;;;;;6.28;100.00;100497.13;5071805;28;20500;-52
2021/11/08 01:15:57;;;;;;;0.52;0.52;;;;;;;6.43;100.00;100510.16;5076834;28;20070;-52
2021/11/08 01:19:00;;;;;;;4.95;1.70;;;;;;;6.53;100.00;100498.09;5071902;28;20078;-52
2021/11/08 01:22:07;;;;;;;7.53;0.95;;;;;;;6.55;100.00;100500.41;5072004;28;20043;-52
2021/11/08 01:25:11;;;;;;;0.43;0.43;;;;;;;6.57;100.00;100479.41;5071614;28;20055;-53
2021/11/08 01:28:14;;;;;;;1.15;1.15;;;;;;;6.57;100.00;100486.91;5071103;28;20047;-53
2021/11/08 01:31:17;;;;;;;1.80;0.85;;;;;;;6.52;100.00;100490.22;5071107;28;20051;-53
2021/11/08 01:34:20;;;;;;;1.40;0.45;;;;;;;6.49;100.00;100486.34;5071059;28;20047;-52
2021/11/08 01:37:23;;;;;;;0.73;0.73;;;;;;;6.53;100.00;100497.31;5071466;28;20043;-52
2021/11/08 01:40:26;;;;;;;4.03;1.77;;;;;;;6.58;100.00;100485.72;5071101;28;20059;-52
2021/11/08 01:43:30;;;;;;;4.57;1.13;;;;;;;6.56;100.00;100483.38;5071008;28;20135;-53
2021/11/08 01:46:33;;;;;;;4.45;1.67;;;;;;;6.55;100.00;100481.81;5070393;28;20048;-52
2021/11/08 01:49:39;;;;;;;1.05;1.05;;;;;;;6.48;100.00;100476.47;5071257;28;20109;-52
2021/11/08 01:52:42;;;;;;;1.48;1.38;;;;;;;6.47;100.00;100471.38;5071388;28;20090;-52
2021/11/08 01:55:45;;;;;;;0.77;0.68;;;;;;;6.47;100.00;100487.97;5070314;28;20043;-52
2021/11/08 01:58:48;;;;;;;2.22;0.75;;;;;;;6.52;100.00;100490.22;5070547;28;20439;-52
2021/11/08 02:01:54;;;;;;;1.70;1.17;;;;;;;6.54;100.00;100487.81;5070990;28;20044;-53
2021/11/08 02:04:57;;;;;;;1.33;1.08;;;;;;;6.51;100.00;100483.13;5071058;28;20083;-52
2021/11/08 02:08:00;;;;;;;1.30;1.23;;;;;;;6.50;100.00;100493.41;5072209;28;20191;-52
2021/11/08 02:11:03;;;;;;;1.83;1.13;;;;;;;6.48;100.00;100484.75;5073090;28;20389;-52
2021/11/08 02:14:07;;;;;;;0.52;0.52;;;;;;;6.39;100.00;100486.59;5072893;28;20055;-52
2021/11/08 02:17:09;;;;;;;2.10;0.88;;;;;;;6.43;100.00;100487.28;5081934;28;20101;-52
2021/11/08 02:20:24;;;;;;;1.17;0.85;;;;;;;6.44;100.00;100484.06;5072939;28;20047;-52
2021/11/08 02:23:28;;;;;;;1.83;1.13;;;;;;;6.43;100.00;100484.50;5072774;28;20047;-52
2021/11/08 02:26:31;;;;;;;6.07;0.80;;;;;;;6.49;100.00;100485.53;5072614;28;20078;-52
2021/11/08 02:29:35;;;;;;;5.07;1.42;;;;;;;6.47;100.00;100482.44;5070788;28;20729;-53
2021/11/08 02:32:39;;;;;;;0.55;0.55;;;;;;;6.42;100.00;100477.41;5072675;28;20075;-52
2021/11/08 02:35:44;;;;;;;1.85;0.90;;;;;;;6.41;100.00;100478.63;5072587;28;20039;-52
2021/11/08 02:38:50;;;;;;;0.50;0.40;;;;;;;6.41;100.00;100484.16;5087947;28;20063;-52
2021/11/08 02:41:53;;;;;;;0.63;0.63;;;;;;;6.40;100.00;100479.84;5072128;28;20376;-52
2021/11/08 02:44:56;;;;;;;0.60;0.60;;;;;;;6.34;100.00;100478.78;5071849;28;20040;-53
2021/11/08 02:48:00;;;;;;;9.07;1.15;;;;;;;6.37;100.00;100472.38;5072503;28;20044;-52
2021/11/08 02:54:26;;;;;;;0.38;0.38;;;;;;;6.31;100.00;100476.88;5072450;28;20104;-53
2021/11/08 02:57:29;;;;;;;0.85;0.50;;;;;;;6.33;100.00;100471.69;5072229;28;20082;-52
2021/11/08 03:00:32;;;;;;;1.13;0.75;;;;;;;6.31;100.00;100485.97;5076306;28;20466;-53
2021/11/08 03:03:41;;;;;;;0.73;0.73;;;;;;;6.31;100.00;100479.66;5076144;28;20044;-52
2021/11/08 03:06:44;;;;;;;0.50;0.50;;;;;;;6.26;100.00;100482.94;5076258;28;20148;-52
2021/11/08 03:09:52;;;;;;;0.85;0.85;;;;;;;6.27;100.00;100478.97;5076236;28;20538;-52
2021/11/08 03:12:58;;;;;;;4.25;0.63;;;;;;;6.21;100.00;100477.91;5075934;28;20044;-52
2021/11/08 03:19:20;;;;;;;1.20;1.00;;;;;;;6.34;100.00;100478.78;5076653;28;20055;-52
2021/11/08 03:22:30;;;;;;;;;;;;;;;6.33;100.00;100477.22;5076411;28;20040;-52
2021/11/08 03:25:45;;;;;;;0.63;0.63;;;;;;;6.34;100.00;100478.78;5076359;28;20268;-52
2021/11/08 03:28:48;;;;;;;0.40;0.40;;;;;;;6.28;100.00;100463.94;5075562;28;20473;-53
2021/11/08 03:31:51;;;;;;;1.10;0.40;;;;;;;6.30;100.00;100472.56;5075593;28;20140;-52
2021/11/08 03:35:00;;;;;;;1.23;1.08;;;;;;;6.24;100.00;100468.78;5075336;28;20048;-52
2021/11/08 03:38:06;;;;;;;0.35;0.35;;;;;;;6.30;100.00;100459.53;5075740;28;20070;-52
2021/11/08 03:41:09;;;;;;;0.52;0.52;;;;;;;6.36;100.00;100448.72;5075443;28;20047;-52
2021/11/08 03:44:12;;;;;;;5.05;0.50;;;;;;;6.38;100.00;100446.28;5075695;28;20043;-53
2021/11/08 03:47:16;;;;;;;1.60;0.77;;;;;;;6.28;100.00;100441.81;5075494;28;20067;-52
2021/11/08 03:50:19;;;;;;;0.50;0.50;;;;;;;6.23;100.00;100439.56;5075780;28;20047;-52
2021/11/08 03:53:23;;;;;;;0.68;0.47;;;;;;;6.20;100.00;100441.19;5075293;28;20546;-52
2021/11/08 03:56:26;;;;;;;5.82;0.52;;;;;;;6.13;100.00;100444.91;5075747;28;20074;-52
2021/11/08 03:59:29;;;;;;;0.52;0.52;;;;;;;6.15;100.00;100449.22;5075153;28;20039;-52
2021/11/08 04:02:32;;;;;;;0.65;0.65;;;;;;;6.06;100.00;100447.06;5075388;28;20077;-52
2021/11/08 04:05:37;;;;;;;0.15;0.15;;;;;;;6.01;100.00;100439.28;5075182;28;20524;-52
2021/11/08 04:08:40;;;;;;;0.40;0.40;;;;;;;5.99;100.00;100445.25;5074659;28;20137;-53
2021/11/08 04:11:44;;;;;;;1.27;0.60;;;;;;;5.99;100.00;100448.00;5074854;28;20430;-52
2021/11/08 04:14:48;;;;;;;9.32;0.93;;;;;;;6.04;100.00;100443.97;5074251;28;20086;-52
2021/11/08 04:17:51;;;;;;;1.05;0.60;;;;;;;6.13;100.00;100453.19;5074929;28;20059;-52
2021/11/08 04:20:55;;;;;;;0.47;0.47;;;;;;;6.24;100.00;100452.94;5074910;28;20522;-52
2021/11/08 04:23:59;;;;;;;0.50;0.50;;;;;;;6.36;100.00;100462.53;5074008;28;20106;-52
2021/11/08 04:27:02;;;;;;;0.75;0.75;;;;;;;6.45;100.00;100451.66;5074845;28;20093;-52
2021/11/08 04:30:07;;;;;;;1.40;1.30;;;;;;;6.55;100.00;100450.59;5074078;28;20561;-52
2021/11/08 04:33:17;;;;;;;0.75;0.75;;;;;;;6.60;100.00;100447.31;5074388;28;20035;-52
2021/11/08 04:36:44;;;;;;;4.38;0.93;;;;;;;6.70;100.00;100440.72;5074072;28;20063;-52
2021/11/08 05:32:19;;;;;;;0.70;0.70;;;;;;;7.60;100.00;100467.09;5073365;28;20052;-52
2021/11/08 05:35:22;;;;;;;1.08;0.50;;;;;;;6.17;100.00;100486.31;5073002;28;20047;-53
2021/11/08 05:38:26;;;;;;;0.30;0.30;;;;;;;5.94;100.00;100483.66;5077095;28;20474;-52
2021/11/08 05:41:29;;;;;;;1.30;0.40;;;;;;;5.85;100.00;100470.44;5091706;28;20050;-52
2021/11/08 05:44:33;;;;;;;1.23;0.95;;;;;;;5.84;100.00;100474.41;5090718;28;20055;-52
2021/11/08 05:47:37;;;;;;;0.50;0.50;;;;;;;5.92;100.00;100481.34;5091597;28;20100;-52
2021/11/08 05:50:42;;;;;;;2.83;0.60;;;;;;;5.97;100.00;100482.81;5089451;28;20042;-52
2021/11/08 05:53:47;;;;;;;0.90;0.90;;;;;;;5.98;100.00;100484.34;5076536;28;20085;-52
2021/11/08 06:00:48;;;;;;;1.75;0.75;;;;;;;5.94;100.00;100489.97;5072658;28;20050;-53
2021/11/08 06:50:34;;;;;;;0.50;0.40;;;;;;;6.17;100.00;100491.06;5072513;28;19981;-52
2021/11/08 06:53:37;;;;;;;0.57;0.57;;;;;;;6.21;100.00;100484.25;5071935;28;20073;-52
2021/11/08 06:56:50;;;;;;;3.90;0.60;;;;;;;6.25;100.00;100486.91;5072224;28;20511;-52
2021/11/08 06:59:53;;;;;;;0.40;0.40;;;;;;;6.29;100.00;100482.06;5071928;28;20044;-52
2021/11/08 07:02:57;;;;;;;0.60;0.60;;;;;;;6.31;100.00;100479.66;5072133;28;20052;-52
2021/11/08 07:06:00;;;;;;;1.52;0.98;;;;;;;6.31;100.00;100469.38;5071817;28;20105;-52
2021/11/08 07:09:03;;;;;;;1.00;0.50;;;;;;;6.32;100.00;100475.69;5072427;28;20039;-52
2021/11/08 07:12:07;;;;;;;5.20;0.55;;;;;;;6.37;100.00;100486.22;5071955;28;20051;-52
2021/11/08 07:15:10;;;;;;;15.70;2.05;;;;;;;6.31;100.00;100487.94;5071887;28;20070;-52
2021/11/08 07:18:14;;;;;;;0.98;0.88;;;;;;;6.39;100.00;100481.06;5071951;28;20051;-52
2021/11/08 07:21:17;;;;;;;0.40;0.40;;;;;;;6.42;100.00;100485.72;5071540;28;20043;-52
2021/11/08 07:24:20;;;;;;;7.68;0.88;;;;;;;6.46;100.00;100491.94;5072112;28;20146;-52
2021/11/08 07:27:24;;;;;;;12.30;1.63;;;;;;;6.47;100.00;100499.03;5071977;28;20050;-52
2021/11/08 07:30:27;;;;;;;6.65;1.58;;;;;;;6.47;100.00;100499.81;5071546;28;20550;-52
2021/11/08 07:33:33;;;;;;;10.88;3.15;;;;;;;6.52;100.00;100495.75;5072089;28;20043;-52
2021/11/08 07:36:36;;;;;;;5.00;2.95;;;;;;;6.52;100.00;100490.97;5071888;28;20130;-52
2021/11/08 07:39:39;;;;;;;3.55;1.83;;;;;;;6.53;100.00;100503.63;5072068;28;20074;-52
2021/11/08 07:42:42;;;;;;;10.18;3.33;;;;;;;6.55;100.00;100503.19;5071414;28;20126;-51
2021/11/08 07:45:46;;;;;;;2.85;1.58;;;;;;;6.61;100.00;100504.22;5073612;28;20090;-52
2021/11/08 07:48:48;;;;;;;4.32;1.98;;;;;;;6.65;100.00;100502.13;5075052;28;20067;-52
2021/11/08 07:51:52;;;;;;;2.92;2.42;;;;;;;6.65;100.00;100497.38;5075358;28;20040;-52
2021/11/08 07:54:55;;;;;;;2.28;1.00;;;;;;;6.72;100.00;100496.44;5075165;28;20619;-51
2021/11/08 07:58:00;;;;;;;10.77;1.80;;;;;;;6.74;100.00;100491.22;5075581;28;20569;-51
2021/11/08 08:01:06;;;;;;;11.07;0.90;;;;;;;6.78;100.00;100480.84;5075039;28;20075;-52
2021/11/08 08:04:09;;;;;;;1.05;0.45;;;;;;;6.83;100.00;100483.09;5074793;28;20079;-52
2021/11/08 08:07:12;;;;;;;3.05;1.40;;;;;;;6.84;100.00;100484.66;5075176;28;20047;-52
2021/11/08 08:10:15;;;;;;;0.60;0.60;;;;;;;6.85;100.00;100486.19;5074968;28;20043;-52
2021/11/08 08:13:22;;;;;;;1.45;1.35;;;;;;;6.89;100.00;100486.88;5074844;28;20090;-52
2021/11/08 08:16:26;;;;;;;0.93;0.90;;;;;;;6.94;100.00;100489.13;5083432;28;20093;-52
2021/11/08 08:19:30;;;;;;;1.30;0.63;;;;;;;6.99;100.00;100485.84;5074773;28;20128;-51
2021/11/08 08:22:33;;;;;;;2.47;1.75;;;;;;;7.05;100.00;100481.34;5074204;28;20043;-52
2021/11/08 08:25:36;;;;;;;1.75;1.45;;;;;;;7.05;100.00;100495.19;5074236;28;20036;-52
2021/11/08 08:28:39;;;;;;;0.75;0.75;;;;;;;7.11;100.00;100504.50;5074059;28;20102;-52
2021/11/08 08:31:45;;;;;;;1.73;0.98;;;;;;;7.16;100.00;100506.75;5074321;28;20472;-52
2021/11/08 08:34:49;;;;;;;3.50;1.58;;;;;;;7.20;100.00;100517.72;5074296;28;20193;-52
2021/11/08 08:37:52;;;;;;;5.75;0.93;;;;;;;7.21;100.00;100516.53;5074236;28;20044;-52
2021/11/08 08:40:55;;;;;;;2.90;1.45;;;;;;;7.28;100.00;100519.88;5073824;28;20040;-52
2021/11/08 08:43:58;;;;;;;0.60;0.60;;;;;;;7.36;100.00;100532.31;5074592;28;20165;-52
2021/11/08 08:47:01;;;;;;;1.50;0.88;;;;;;;7.52;100.00;100514.84;5074005;28;20100;-52
2021/11/08 08:50:06;;;;;;;1.17;1.08;;;;;;;7.64;100.00;100512.13;5074210;28;20145;-52
2021/11/08 08:53:09;;;;;;;3.60;1.63;;;;;;;7.68;100.00;100506.50;5073713;28;20063;-52
2021/11/08 08:56:14;;;;;;;0.82;0.82;;;;;;;7.68;100.00;100500.16;5074008;28;20082;-52
2021/11/08 08:59:18;;;;;;;1.17;0.98;;;;;;;7.58;100.00;100493.69;5073797;28;20067;-52
2021/11/08 09:02:22;;;;;;;2.17;1.35;;;;;;;7.54;100.00;100499.34;5073811;28;20071;-53
2021/11/08 09:05:25;;;;;;;3.50;1.52;;;;;;;7.56;100.00;100496.91;5073419;28;20120;-52
2021/11/08 09:08:28;;;;;;;9.23;1.65;;;;;;;7.56;100.00;100496.91;5073684;28;20071;-52
2021/11/08 09:11:31;;;;;;;1.45;1.25;;;;;;;7.59;100.00;100504.38;5073607;28;20480;-52
2021/11/08 09:14:37;;;;;;;1.55;0.95;;;;;;;7.64;100.00;100506.56;5073476;28;20043;-52
2021/11/08 09:17:40;;;;;;;1.30;0.93;;;;;;;7.67;100.00;100491.06;5087794;28;20082;-52
2021/11/08 09:20:44;;;;;;;0.73;0.73;;;;;;;7.74;100.00;100484.53;5072958;28;20039;-52
2021/11/08 09:23:49;;;;;;;2.58;1.10;;;;;;;7.82;100.00;100477.59;5072263;28;20081;-52
2021/11/08 09:26:53;;;;;;;6.32;1.95;;;;;;;7.85;100.00;100474.69;5083338;28;20074;-53
2021/11/08 09:29:56;;;;;;;1.30;1.00;;;;;;;7.83;100.00;100476.34;5083247;28;20178;-53
2021/11/08 09:32:59;;;;;;;2.60;0.88;;;;;;;7.79;100.00;100475.69;5074972;28;20054;-52
2021/11/08 09:36:06;;;;;;;1.58;0.82;;;;;;;7.72;100.00;100475.88;5072672;28;20094;-53
2021/11/08 09:39:21;;;;;;;1.77;1.02;;;;;;;7.61;100.00;100471.44;5072109;28;20093;-53
2021/11/08 09:42:27;;;;;;;0.63;0.63;;;;;;;7.57;100.00;100470.75;5072820;28;20149;-52
2021/11/08 09:45:30;;;;;;;3.22;1.33;;;;;;;7.51;100.00;100483.59;5072777;28;20051;-52
2021/11/08 09:48:37;;;;;;;0.43;0.43;;;;;;;7.48;100.00;100481.72;5072657;28;20082;-53
2021/11/08 09:51:43;;;;;;;1.33;1.13;;;;;;;7.54;100.00;100479.94;5072555;28;20086;-52
2021/11/08 09:54:46;;;;;;;5.75;1.50;;;;;;;7.63;100.00;100480.09;5072472;28;20047;-53
2021/11/08 09:57:52;;;;;;;1.75;1.55;;;;;;;7.78;100.00;100485.97;5072593;28;20102;-52
2021/11/08 10:00:59;;;;;;;1.25;1.13;;;;;;;8.02;100.00;100486.47;5072822;28;20098;-52
2021/11/08 10:04:03;;;;;;;1.27;0.60;;;;;;;8.19;100.00;100483.13;5072209;28;20094;-53
2021/11/08 10:07:06;;;;;;;4.93;0.95;;;;;;;8.38;100.00;100478.63;5071846;28;20448;-52
2021/11/08 10:10:10;;;;;;;5.95;1.30;;;;;;;8.77;100.00;100483.66;5072203;28;20148;-52
2021/11/08 10:13:19;;;;;;;6.20;1.10;;;;;;;9.18;100.00;100475.06;5072531;28;20058;-53
2021/11/08 10:16:30;;;;;;;1.15;0.73;;;;;;;9.57;100.00;100468.09;5073158;28;20043;-53
2021/11/08 10:19:35;;;;;;;0.85;0.43;;;;;;;9.69;100.00;100466.47;5072002;28;20051;-53
2021/11/08 10:22:39;;;;;;;0.65;0.65;;;;;;;9.79;100.00;100462.50;5076933;28;20058;-53
2021/11/08 10:25:44;;;;;;;4.82;0.88;;;;;;;9.84;100.00;100453.59;5073981;28;20404;-53
2021/11/08 10:28:57;;;;;;;8.27;0.95;;;;;;;9.95;100.00;100459.50;5071810;28;20400;-53
2021/11/08 10:32:06;;;;;;;7.85;1.05;;;;;;;10.05;100.00;100455.53;5072171;28;20408;-53
2021/11/08 10:35:09;;;;;;;0.50;0.40;;;;;;;10.17;100.00;100465.84;5071503;28;20048;-53
2021/11/08 10:38:16;;;;;;;12.05;0.90;;;;;;;10.23;100.00;100452.84;5072079;28;20443;-53
2021/11/08 10:41:26;;;;;;;0.68;0.68;;;;;;;10.25;100.00;100446.81;5071914;28;20040;-53
2021/11/08 10:44:31;;;;;;;3.63;1.10;;;;;;;10.27;100.00;100447.13;5072441;28;20492;-53
2021/11/08 10:47:36;;;;;;;0.40;0.40;;;;;;;10.23;100.00;100441.72;5071855;28;20043;-53
2021/11/08 10:50:43;;;;;;;0.20;0.10;;;;;;;10.21;100.00;100437.84;5072219;28;20089;-53
2021/11/08 10:54:03;;;;;;;0.52;0.20;;;;;;;10.13;100.00;100437.38;5071802;28;20127;-53
2021/11/08 10:57:09;;;;;;;3.80;1.08;;;;;;;10.13;100.00;100448.50;5072111;28;20052;-53
2021/11/08 11:00:13;;;;;;;2.58;1.40;;;;;;;10.25;100.00;100447.59;5071889;28;20062;-53
2021/11/08 11:03:18;;;;;;;1.58;1.05;;;;;;;10.27;100.00;100453.50;5072041;28;20495;-53
2021/11/08 11:06:38;;;;;;;5.47;1.23;;;;;;;10.46;100.00;100443.94;5071570;28;20431;-53
2021/11/08 11:09:41;;;;;;;4.03;1.17;;;;;;;10.88;100.00;100446.19;5071741;28;20522;-49
2021/11/08 11:12:47;;;;;;;0.52;0.50;;;;;;;11.28;100.00;100447.56;5071876;28;20028;-51
2021/11/08 11:16:01;;;;;;;2.25;1.23;;;;;;;11.50;100.00;100441.81;5075383;28;20058;-50
2021/11/08 11:19:11;;;;;;;5.85;0.85;;;;;;;11.71;100.00;100437.31;5071946;28;20443;-50
2021/11/08 11:22:20;;;;;;;6.60;1.27;;;;;;;11.79;100.00;100433.72;5075514;28;20099;-50
2021/11/08 11:25:23;;;;;;;0.82;0.82;;;;;;;11.90;100.00;100420.06;5075494;28;20039;-49
2021/11/08 11:28:32;;;;;;;0.20;0.20;;;;;;;11.98;100.00;100426.06;5055233;28;20409;-57
2021/11/08 11:31:37;;;;;;;16.90;1.48;;;;;;;12.14;100.00;100423.69;5041665;28;20156;-57
2021/11/08 11:34:40;;;;;;;3.72;0.85;;;;;;;12.26;100.00;100429.53;5042223;28;20083;-58
2021/11/08 11:37:56;;;;;;;3.65;1.23;;;;;;;12.29;100.00;100428.56;5040389;28;20039;-54
2021/11/08 11:41:06;;;;;;;2.42;1.00;;;;;;;12.47;100.00;100417.28;5037137;28;20035;-54
2021/11/08 11:44:22;;;;;;;2.42;1.25;;;;;;;12.70;100.00;100419.31;5037814;28;20058;-53
2021/11/08 11:47:27;;;;;;;5.88;1.15;;;;;;;12.90;100.00;100416.69;5046598;28;20075;-54
2021/11/08 11:50:34;;;;;;;10.85;2.28;;;;;;;13.12;100.00;100408.78;5037379;28;20058;-51
2021/11/08 11:53:38;;;;;;;1.58;0.88;;;;;;;13.18;100.00;100409.63;5044850;28;20624;-56
2021/11/08 11:56:44;;;;;;;9.07;1.92;;;;;;;13.20;100.00;100407.13;5039385;28;20109;-54
2021/11/08 11:59:47;;;;;;;1.60;0.80;;;;;;;13.32;100.00;100402.53;5040358;28;20113;-53
2021/11/08 12:02:51;;;;;;;1.52;1.42;;;;;;;13.31;100.00;100401.75;5039077;28;20040;-55
2021/11/08 12:05:55;;;;;;;1.02;0.50;;;;;;;13.30;100.00;100394.59;5038688;28;20462;-55
2021/11/08 12:09:01;;;;;;;2.03;0.55;;;;;;;13.41;100.00;100394.03;5038989;28;20408;-55
2021/11/08 12:12:05;;;;;;;0.88;0.73;;;;;;;12.39;100.00;100382.59;5037906;28;20491;-54
2021/11/08 12:15:09;;;;;;;3.17;0.85;;;;;;;12.31;100.00;100382.16;5036300;28;20040;-54
2021/11/08 12:18:16;;;;;;;0.70;0.63;;;;;;;12.25;100.00;100388.88;5036803;28;20154;-54
2021/11/08 12:21:26;;;;;;;0.32;0.30;;;;;;;12.24;100.00;100381.72;5036940;28;20043;-54
2021/11/08 12:24:29;;;;;;;0.40;0.20;;;;;;;12.29;100.00;100383.88;5037300;28;20067;-56
2021/11/08 12:27:36;;;;;;;0.60;0.32;;;;;;;12.34;100.00;100369.28;5036250;28;20169;-56
2021/11/08 12:30:48;;;;;;;10.10;0.47;;;;;;;12.82;100.00;100370.78;5034449;28;20126;-56
2021/11/08 12:34:07;;;;;;;0.60;0.30;;;;;;;12.79;100.00;100366.91;5035289;28;20543;-57
2021/11/08 12:37:10;;;;;;;0.30;0.15;;;;;;;12.98;100.00;100361.94;5033928;28;20097;-56
2021/11/08 12:40:23;;;;;;;0.28;0.10;;;;;;;12.54;100.00;100361.06;5034713;28;20090;-56
2021/11/08 12:43:28;;;;;;;1.67;0.32;;;;;;;12.58;100.00;100362.41;5033409;28;20365;-56
2021/11/08 12:46:36;;;;;;;3.30;0.43;;;;;;;12.64;100.00;100354.16;5034186;28;20090;-56
2021/11/08 12:49:50;;;;;;;0.43;0.43;;;;;;;12.76;100.00;100359.47;5034355;28;20152;-56
2021/11/08 12:52:53;;;;;;;3.65;0.85;;;;;;;12.89;100.00;100353.63;5033905;28;20164;-57
2021/11/08 12:56:20;;;;;;;6.22;0.38;;;;;;;12.97;100.00;100349.22;5036585;28;20070;-55
2021/11/08 12:59:26;;;;;;;2.90;0.65;;;;;;;13.25;100.00;100353.34;5037111;28;20059;-57
2021/11/08 13:02:40;;;;;;;0.20;0.20;;;;;;;13.22;100.00;100351.47;5036782;28;20136;-57
2021/11/08 13:05:46;;;;;;;2.15;0.52;;;;;;;13.27;100.00;100345.22;5036555;28;20036;-56
2021/11/08 13:08:49;;;;;;;0.22;0.22;;;;;;;13.28;100.00;100338.38;5035620;28;20055;-56
2021/11/08 13:11:55;;;;;;;2.10;0.45;;;;;;;13.37;100.00;100337.50;5034809;28;20450;-56
2021/11/08 13:15:10;;;;;;;1.48;0.47;;;;;;;13.47;100.00;100331.31;5033961;28;20790;-56
2021/11/08 13:18:13;;;;;;;0.10;0.00;;;;;;;13.57;100.00;100329.97;5034753;28;20096;-58
2021/11/08 13:21:25;;;;;;;5.25;0.52;;;;;;;13.60;100.00;100322.59;5035188;28;20105;-57
2021/11/08 13:24:30;;;;;;;1.10;0.20;;;;;;;13.76;100.00;100312.94;5035853;28;20622;-58
2021/11/08 13:27:34;;;;;;;1.08;0.43;;;;;;;14.15;100.00;100311.44;5035287;28;20515;-58
2021/11/08 13:30:54;;;;;;;4.88;0.60;;;;;;;14.37;100.00;100312.56;5036979;28;20571;-57
2021/11/08 13:33:57;;;;;;;6.05;0.52;;;;;;;14.63;100.00;100306.22;5037987;28;20433;-56
2021/11/08 13:37:01;;;;;;;0.28;0.22;;;;;;;14.80;100.00;100302.34;5038170;28;20090;-58
2021/11/08 13:40:19;;;;;;;2.22;0.43;;;;;;;14.76;100.00;100301.78;5040037;28;20110;-58
2021/11/08 13:43:26;;;;;;;0.40;0.22;;;;;;;14.29;100.00;100288.25;5036962;28;20043;-58
2021/11/08 13:46:38;;;;;;;7.57;0.85;;;;;;;14.19;100.00;100295.97;5040752;28;20054;-55
2021/11/08 13:49:41;;;;;;;1.27;0.50;;;;;;;14.21;100.00;100295.47;5039023;28;20199;-58
2021/11/08 13:53:04;;;;;;;0.85;0.20;;;;;;;14.22;100.00;100289.41;5045075;28;20039;-57
2021/11/08 13:56:11;;;;;;;0.85;0.68;;;;;;;14.15;100.00;100295.41;5037733;28;20097;-51
2021/11/08 13:59:36;;;;;;;1.35;0.57;;;;;;;14.07;100.00;100287.94;5040230;28;20035;-56
2021/11/08 14:02:39;;;;;;;11.60;0.85;;;;;;;13.92;100.00;100284.41;5043443;28;20066;-56
2021/11/08 14:05:50;;;;;;;1.73;0.68;;;;;;;13.79;100.00;100275.56;5042730;28;20035;-56
2021/11/08 14:08:53;;;;;;;0.57;0.57;;;;;;;13.78;100.00;100271.22;5041281;28;20047;-56
2021/11/08 14:12:00;;;;;;;4.18;0.52;;;;;;;13.78;100.00;100274.78;5037925;28;20105;-57
2021/11/08 14:15:06;;;;;;;0.30;0.20;;;;;;;13.65;100.00;100263.94;5037336;28;20043;-57
2021/11/08 14:18:19;;;;;;;2.72;0.30;;;;;;;13.61;100.00;100263.38;5037857;28;20039;-58
2021/11/08 14:21:24;;;;;;;4.85;0.77;;;;;;;13.67;100.00;100264.22;5036731;28;20040;-58
2021/11/08 14:24:32;;;;;;;0.82;0.47;;;;;;;13.47;100.00;100258.56;5036878;28;20500;-56
2021/11/08 14:27:39;;;;;;;2.33;0.22;;;;;;;13.36;100.00;100261.19;5036693;28;20075;-57
2021/11/08 14:30:42;;;;;;;3.60;1.08;;;;;;;13.37;100.00;100261.97;5036406;28;20059;-57
2021/11/08 14:33:45;;;;;;;3.42;0.50;;;;;;;13.42;100.00;100261.28;5035843;28;20039;-58
2021/11/08 14:36:50;;;;;;;1.08;1.05;;;;;;;13.21;100.00;100260.44;5036110;28;20043;-57
2021/11/08 14:39:54;;;;;;;3.35;0.73;;;;;;;13.19;100.00;100259.41;5036390;28;20120;-57
2021/11/08 14:42:58;;;;;;;2.50;0.90;;;;;;;12.98;100.00;100255.69;5035316;28;20108;-57
2021/11/08 14:46:04;;;;;;;0.98;0.70;;;;;;;13.10;100.00;100257.47;5035929;28;20458;-57
2021/11/08 14:49:31;;;;;;;7.95;0.57;;;;;;;13.13;100.00;100245.31;5037305;28;20264;-57
2021/11/08 14:52:40;;;;;;;3.08;1.58;;;;;;;13.11;100.00;100259.00;5036803;28;20052;-57
2021/11/08 14:55:44;;;;;;;2.85;0.95;;;;;;;13.12;100.00;100263.34;5055587;28;20832;-59
2021/11/08 14:59:03;;;;;;;1.23;0.17;;;;;;;13.06;100.00;100265.25;5057003;28;20402;-57
2021/11/08 15:02:12;;;;;;;6.40;1.35;;;;;;;13.05;100.00;100271.34;5052199;28;20097;-57
2021/11/08 15:05:19;;;;;;;4.20;0.73;;;;;;;13.10;100.00;100274.25;5059463;28;20322;-57
2021/11/08 15:08:23;;;;;;;1.88;0.63;;;;;;;13.02;100.00;100270.25;5055232;28;20035;-57
2021/11/08 15:11:27;;;;;;;1.77;0.63;;;;;;;13.02;100.00;100272.25;5043388;28;20586;-57
2021/11/08 15:14:45;;;;;;;3.45;1.10;;;;;;;12.93;100.00;100261.94;5040753;28;20055;-57
2021/11/08 15:17:55;;;;;;;5.57;1.27;;;;;;;12.94;100.00;100263.50;5041600;28;20385;-56
2021/11/08 15:21:04;;;;;;;4.55;1.58;;;;;;;13.02;100.00;100267.44;5041677;28;20039;-57
2021/11/08 15:24:12;;;;;;;5.10;1.13;;;;;;;12.99;100.00;100274.03;5042254;28;20067;-57
2021/11/08 15:27:28;;;;;;;5.53;1.88;;;;;;;12.90;100.00;100276.91;5041487;28;20339;-57
2021/11/08 15:30:34;;;;;;;0.88;0.70;;;;;;;12.77;100.00;100276.41;5041590;28;20052;-56
2021/11/08 15:33:53;;;;;;;10.75;1.38;;;;;;;12.74;100.00;100280.16;5041956;28;20426;-57
2021/11/08 15:36:59;;;;;;;0.60;0.57;;;;;;;12.67;100.00;100280.53;5053552;28;20272;-57
2021/11/08 15:40:04;;;;;;;2.13;1.17;;;;;;;12.63;100.00;100283.53;5055205;28;20393;-58
2021/11/08 15:43:08;;;;;;;0.63;0.50;;;;;;;12.57;100.00;100288.25;5040616;28;20115;-53
2021/11/08 15:46:14;;;;;;;2.70;1.13;;;;;;;12.58;100.00;100286.22;5047650;28;20119;-54
2021/11/08 15:49:20;;;;;;;0.98;0.88;;;;;;;12.58;100.00;100278.59;5051749;28;20256;-52
2021/11/08 15:52:25;;;;;;;2.05;0.47;;;;;;;12.58;100.00;100289.00;5046595;28;20031;-57
2021/11/08 15:55:30;;;;;;;4.85;1.13;;;;;;;12.60;100.00;100292.09;5044217;28;20067;-57
2021/11/08 15:58:34;;;;;;;0.88;0.57;;;;;;;12.60;100.00;100280.94;5043024;28;20039;-57
2021/11/08 16:01:39;;;;;;;4.78;0.52;;;;;;;12.49;100.00;100287.06;5042580;28;20395;-57
2021/11/08 16:04:43;;;;;;;2.90;0.80;;;;;;;12.46;100.00;100292.81;5043571;28;20405;-57
2021/11/08 16:07:46;;;;;;;4.20;1.23;;;;;;;12.44;100.00;100296.09;5040155;28;20630;-57
2021/11/08 16:10:50;;;;;;;1.75;1.23;;;;;;;12.36;100.00;100296.94;5042541;28;20396;-57
2021/11/08 16:13:55;;;;;;;1.45;0.95;;;;;;;12.41;100.00;100293.50;5040505;28;20717;-57